createdAt,value
2023-02-17T00:01:31.174Z,73.62
2023-02-17T00:03:59.881Z,73.42
2023-02-17T00:06:30.000Z,71.58
2023-02-17T00:08:58.235Z,73.40
2023-02-17T00:11:27.007Z,72.12
2023-02-17T00:13:56.312Z,72.64
2023-02-17T00:16:26.548Z,72.72
2023-02-17T00:19:01.953Z,72.35
2023-02-17T00:21:31.609Z,72.76
2023-02-17T00:24:00.105Z,73.69
2023-02-17T00:26:28.789Z,73.85
2023-02-17T00:28:56.011Z,73.48
2023-02-17T00:31:24.315Z,73.49
2023-02-17T00:33:55.896Z,73.57
2023-02-17T00:36:25.348Z,73.61
2023-02-17T00:38:54.930Z,73.34
2023-02-17T00:41:23.437Z,73.56
2023-02-17T00:43:51.126Z,73.18
2023-02-17T00:46:19.188Z,72.99
2023-02-17T00:48:47.796Z,72.98
2023-02-17T00:51:17.154Z,73.79
2023-02-17T00:53:44.742Z,73.56
2023-02-17T00:56:12.549Z,73.88
2023-02-17T00:58:41.659Z,72.42
2023-02-17T01:01:10.278Z,74.11
2023-02-17T01:03:42.412Z,74.47
2023-02-17T01:06:18.684Z,74.44
2023-02-17T01:08:46.258Z,74.52
2023-02-17T01:11:18.560Z,73.85
2023-02-17T01:13:46.562Z,73.03
2023-02-17T01:16:29.830Z,73.53
2023-02-17T01:18:59.467Z,74.40
2023-02-17T01:21:29.083Z,74.79
2023-02-17T01:23:59.776Z,74.42
2023-02-17T01:26:31.476Z,74.69
2023-02-17T01:29:01.989Z,74.03
2023-02-17T01:31:29.954Z,73.61
2023-02-17T01:33:59.353Z,76.21
2023-02-17T01:36:27.053Z,73.74
2023-02-17T01:38:55.008Z,74.24
2023-02-17T01:41:26.990Z,75.15
2023-02-17T01:44:12.267Z,74.97
2023-02-17T01:46:41.652Z,74.82
2023-02-17T01:49:22.255Z,74.16
2023-02-17T01:51:55.312Z,75.14
2023-02-17T01:54:29.372Z,74.51
2023-02-17T01:56:59.153Z,74.14
2023-02-17T01:59:27.027Z,74.78
2023-02-17T02:01:59.212Z,74.79
2023-02-17T02:04:31.776Z,74.95
2023-02-17T02:06:59.961Z,74.75
2023-02-17T02:09:36.936Z,74.68
2023-02-17T02:12:20.802Z,74.13
2023-02-17T02:14:49.732Z,75.33
2023-02-17T02:17:31.956Z,75.40
2023-02-17T02:19:59.613Z,75.11
2023-02-17T02:22:59.527Z,75.48
2023-02-17T02:25:58.746Z,74.31
2023-02-17T02:28:53.664Z,75.08
2023-02-17T02:31:56.033Z,73.35
2023-02-17T02:34:35.772Z,74.49
2023-02-17T02:37:15.271Z,74.25
2023-02-17T02:39:49.252Z,75.61
2023-02-17T02:42:21.094Z,75.55
2023-02-17T02:44:48.810Z,74.96
2023-02-17T02:47:44.174Z,74.56
2023-02-17T02:50:48.389Z,74.47
2023-02-17T02:53:21.784Z,74.06
2023-02-17T02:56:22.461Z,75.12
2023-02-17T02:59:01.141Z,74.75
2023-02-17T03:01:54.422Z,74.39
2023-02-17T03:04:42.974Z,72.49
2023-02-17T03:07:22.338Z,72.24
2023-02-17T03:09:51.931Z,73.20
2023-02-17T03:12:21.049Z,73.50
2023-02-17T03:14:50.849Z,74.25
2023-02-17T03:17:18.159Z,74.57
2023-02-17T03:19:49.386Z,74.16
2023-02-17T03:22:22.564Z,76.00
2023-02-17T03:24:50.465Z,75.85
2023-02-17T03:27:18.133Z,76.10
2023-02-17T03:29:45.546Z,76.59
2023-02-17T03:32:13.156Z,76.51
2023-02-17T03:34:40.353Z,75.91
2023-02-17T03:37:07.634Z,75.57
2023-02-17T03:39:35.307Z,75.97
2023-02-17T03:42:02.996Z,77.06
2023-02-17T03:44:30.370Z,75.94
2023-02-17T03:46:57.995Z,75.66
2023-02-17T03:49:25.316Z,75.75
2023-02-17T03:51:52.536Z,76.45
2023-02-17T03:54:20.049Z,76.11
2023-02-17T03:56:47.333Z,75.46
2023-02-17T03:59:14.622Z,75.32
2023-02-17T04:01:44.208Z,76.07
2023-02-17T04:04:11.938Z,75.00
2023-02-17T04:06:40.044Z,74.71
2023-02-17T04:09:09.021Z,74.16
2023-02-17T04:11:36.755Z,76.23
2023-02-17T04:14:04.670Z,76.22
2023-02-17T04:16:32.018Z,76.39
2023-02-17T04:18:59.948Z,75.85
2023-02-17T04:21:27.252Z,75.43
2023-02-17T04:23:55.337Z,74.89
2023-02-17T04:26:23.065Z,74.84
2023-02-17T04:28:50.397Z,76.52
2023-02-17T04:31:17.735Z,77.42
2023-02-17T04:33:45.408Z,76.44
2023-02-17T04:36:12.749Z,76.94
2023-02-17T04:38:40.304Z,77.51
2023-02-17T04:41:08.084Z,78.34
2023-02-17T04:43:35.488Z,77.95
2023-02-17T04:46:03.065Z,77.34
2023-02-17T04:48:30.905Z,77.22
2023-02-17T04:50:58.502Z,77.15
2023-02-17T04:53:25.861Z,76.57
2023-02-17T04:55:55.093Z,77.52
2023-02-17T04:58:22.780Z,78.31
2023-02-17T05:00:51.166Z,77.70
2023-02-17T05:03:19.713Z,77.64
2023-02-17T05:05:47.313Z,77.27
2023-02-17T05:08:14.608Z,77.75
2023-02-17T05:10:42.311Z,78.12
2023-02-17T05:13:09.737Z,77.91
2023-02-17T05:15:37.220Z,77.50
2023-02-17T05:18:05.262Z,78.11
2023-02-17T05:20:32.616Z,77.97
2023-02-17T05:23:00.370Z,76.64
2023-02-17T05:25:28.126Z,75.92
2023-02-17T05:27:55.614Z,76.70
2023-02-17T05:30:23.162Z,77.70
2023-02-17T05:32:50.918Z,77.26
2023-02-17T05:35:18.324Z,77.63
2023-02-17T05:37:45.620Z,77.88
2023-02-17T05:40:13.502Z,77.69
2023-02-17T05:42:41.823Z,77.32
2023-02-17T05:45:09.171Z,77.69
2023-02-17T05:47:37.828Z,77.74
2023-02-17T05:50:05.673Z,77.80
2023-02-17T05:52:32.985Z,78.08
2023-02-17T05:55:00.661Z,78.35
2023-02-17T05:57:28.205Z,78.79
2023-02-17T05:59:55.503Z,78.24
2023-02-17T06:02:23.124Z,75.78
2023-02-17T06:04:50.885Z,76.06
2023-02-17T06:07:18.203Z,76.42
2023-02-17T06:09:47.219Z,77.13
2023-02-17T06:12:15.205Z,77.56
2023-02-17T06:14:42.708Z,78.40
2023-02-17T06:17:10.702Z,78.54
2023-02-17T06:19:38.518Z,78.61
2023-02-17T06:22:06.095Z,77.82
2023-02-17T06:24:33.414Z,77.73
2023-02-17T06:27:02.529Z,77.30
2023-02-17T06:29:29.856Z,77.07
2023-02-17T06:31:57.263Z,77.63
2023-02-17T06:34:25.546Z,77.97
2023-02-17T06:36:52.811Z,77.48
2023-02-17T06:39:20.033Z,76.66
2023-02-17T06:41:47.674Z,76.36
2023-02-17T06:44:14.987Z,77.01
2023-02-17T06:46:42.360Z,75.63
2023-02-17T06:49:10.022Z,75.80
2023-02-17T06:51:37.374Z,75.37
2023-02-17T06:54:04.763Z,75.24
2023-02-17T06:56:32.639Z,75.48
2023-02-17T06:59:01.604Z,75.39
2023-02-17T07:01:29.300Z,74.13
2023-02-17T07:03:57.513Z,77.20
2023-02-17T07:06:25.431Z,75.31
2023-02-17T07:08:52.753Z,74.60
2023-02-17T07:11:21.065Z,74.70
2023-02-17T07:13:48.745Z,74.85
2023-02-17T07:16:16.579Z,74.91
2023-02-17T07:18:44.322Z,75.46
2023-02-17T07:21:11.672Z,75.76
2023-02-17T07:23:39.767Z,75.59
2023-02-17T07:26:10.258Z,74.71
2023-02-17T07:28:39.097Z,74.06
2023-02-17T07:31:07.779Z,71.85
2023-02-17T07:33:36.028Z,71.53
2023-02-17T07:36:08.684Z,70.08
2023-02-17T07:38:37.438Z,70.02
2023-02-17T07:41:10.975Z,69.50
2023-02-17T07:43:39.376Z,68.60
2023-02-17T07:46:09.562Z,68.81
2023-02-17T07:48:37.521Z,68.59
2023-02-17T07:51:20.642Z,67.41
2023-02-17T07:53:49.440Z,67.07
2023-02-17T07:56:19.504Z,65.99
2023-02-17T07:58:46.923Z,65.14
2023-02-17T08:01:17.997Z,65.33
2023-02-17T08:03:46.859Z,65.21
2023-02-17T08:06:20.293Z,65.63
2023-02-17T08:09:07.860Z,65.54
2023-02-17T08:11:54.742Z,65.62
2023-02-17T08:14:24.611Z,66.78
2023-02-17T08:16:52.751Z,65.58
2023-02-17T08:19:20.513Z,64.97
2023-02-17T08:21:49.275Z,65.24
2023-02-17T08:24:16.707Z,63.87
2023-02-17T08:26:44.108Z,64.05
2023-02-17T08:29:11.961Z,61.89
2023-02-17T08:31:39.722Z,62.56
2023-02-17T08:34:09.602Z,61.71
2023-02-17T08:36:40.030Z,60.18
2023-02-17T08:39:12.433Z,59.72
2023-02-17T08:41:41.312Z,59.65
2023-02-17T08:44:12.459Z,56.80
2023-02-17T08:46:40.751Z,56.80
2023-02-17T08:49:08.329Z,55.06
2023-02-17T08:51:36.197Z,54.31
2023-02-17T08:54:06.609Z,53.75
2023-02-17T08:56:34.739Z,52.40
2023-02-17T08:59:02.102Z,51.13
2023-02-17T09:01:30.964Z,47.64
2023-02-17T09:04:00.245Z,44.57
2023-02-17T09:06:41.598Z,43.33
2023-02-17T09:09:12.387Z,41.43
2023-02-17T09:11:39.877Z,39.80
2023-02-17T09:14:08.268Z,38.72
2023-02-17T09:16:36.380Z,37.05
2023-02-17T09:19:04.038Z,38.31
2023-02-17T09:21:31.844Z,37.06
2023-02-17T09:23:59.586Z,36.04
2023-02-17T09:26:27.081Z,36.72
2023-02-17T09:28:54.737Z,34.87
2023-02-17T09:31:25.912Z,34.88
2023-02-17T09:33:53.482Z,35.58
2023-02-17T09:36:27.118Z,35.26
2023-02-17T09:38:55.934Z,36.28
2023-02-17T09:41:29.137Z,36.15
2023-02-17T09:43:57.091Z,34.83
2023-02-17T09:46:29.469Z,35.30
2023-02-17T09:49:03.668Z,35.89
2023-02-17T09:51:38.051Z,34.03
2023-02-17T09:54:17.662Z,34.82
2023-02-17T09:56:48.768Z,34.02
2023-02-17T09:59:49.137Z,34.01
2023-02-17T10:02:48.714Z,33.99
2023-02-17T10:05:21.391Z,33.83
2023-02-17T10:07:58.096Z,32.35
2023-02-17T10:10:40.409Z,33.62
2023-02-17T10:13:09.718Z,32.58
2023-02-17T10:15:44.807Z,32.03
2023-02-17T10:18:37.888Z,32.33
2023-02-17T10:21:13.032Z,32.54
2023-02-17T10:23:40.836Z,31.28
2023-02-17T10:26:30.422Z,31.33
2023-02-17T10:29:07.671Z,31.38
2023-02-17T10:31:45.994Z,31.21
2023-02-17T10:34:30.669Z,30.38
2023-02-17T10:37:13.357Z,31.12
2023-02-17T10:39:55.720Z,31.21
2023-02-17T10:42:31.665Z,30.74
2023-02-17T10:45:13.493Z,31.13
2023-02-17T10:47:41.461Z,30.74
2023-02-17T10:50:19.833Z,29.62
2023-02-17T10:52:48.199Z,29.10
2023-02-17T10:55:26.118Z,30.51
2023-02-17T10:58:19.556Z,29.73
2023-02-17T11:00:50.038Z,29.40
2023-02-17T11:03:21.837Z,29.72
2023-02-17T11:06:02.417Z,28.60
2023-02-17T11:08:40.991Z,28.94
2023-02-17T11:11:17.879Z,28.44
2023-02-17T11:14:08.466Z,28.31
2023-02-17T11:16:44.191Z,27.37
2023-02-17T11:19:26.000Z,26.46
2023-02-17T11:21:55.445Z,27.89
2023-02-17T11:24:23.777Z,26.56
2023-02-17T11:27:12.314Z,28.04
2023-02-17T11:29:40.015Z,26.71
2023-02-17T11:32:12.646Z,25.95
2023-02-17T11:34:43.593Z,27.05
2023-02-17T11:37:14.027Z,26.81
2023-02-17T11:39:44.699Z,26.46
2023-02-17T11:42:26.760Z,26.79
2023-02-17T11:44:57.110Z,26.17
2023-02-17T11:47:47.858Z,25.95
2023-02-17T11:50:40.155Z,27.17
2023-02-17T11:53:23.042Z,25.89
2023-02-17T11:55:53.439Z,26.58
2023-02-17T11:58:44.751Z,27.05
2023-02-17T12:01:20.218Z,26.84
2023-02-17T12:03:54.562Z,26.04
2023-02-17T12:06:33.871Z,26.23
2023-02-17T12:09:18.673Z,25.44
2023-02-17T12:12:10.205Z,25.12
2023-02-17T12:14:43.725Z,25.34
2023-02-17T12:17:19.117Z,25.87
2023-02-17T12:19:55.862Z,25.80
2023-02-17T12:22:54.483Z,25.91
2023-02-17T12:25:32.385Z,26.51
2023-02-17T12:28:05.926Z,26.57
2023-02-17T12:30:52.200Z,25.18
2023-02-17T12:33:48.002Z,26.68
2023-02-17T12:36:18.727Z,25.80
2023-02-17T12:39:02.229Z,25.68
2023-02-17T12:41:37.744Z,25.71
2023-02-17T12:44:26.839Z,24.76
2023-02-17T12:46:59.435Z,25.57
2023-02-17T12:49:42.623Z,25.11
2023-02-17T12:52:31.135Z,25.38
2023-02-17T12:55:05.355Z,24.43
2023-02-17T12:57:41.260Z,25.52
2023-02-17T13:00:29.415Z,25.78
2023-02-17T13:03:02.198Z,25.45
2023-02-17T13:05:35.133Z,24.97
2023-02-17T13:08:08.495Z,25.50
2023-02-17T13:10:37.993Z,25.81
2023-02-17T13:13:11.212Z,24.70
2023-02-17T13:15:43.231Z,24.48
2023-02-17T13:18:27.991Z,24.35
2023-02-17T13:21:00.596Z,25.16
2023-02-17T13:23:39.292Z,24.46
2023-02-17T13:26:20.819Z,24.73
2023-02-17T13:28:51.161Z,24.74
2023-02-17T13:31:21.747Z,24.76
2023-02-17T13:33:52.849Z,25.36
2023-02-17T13:36:38.518Z,26.36
2023-02-17T13:39:28.242Z,25.88
2023-02-17T13:42:01.117Z,25.56
2023-02-17T13:44:33.269Z,25.90
2023-02-17T13:47:12.514Z,26.25
2023-02-17T13:49:40.208Z,26.10
2023-02-17T13:52:17.695Z,26.17
2023-02-17T13:55:00.343Z,25.12
2023-02-17T13:57:33.595Z,25.28
2023-02-17T14:00:21.570Z,25.47
2023-02-17T14:02:59.168Z,25.42
2023-02-17T14:05:28.615Z,25.99
2023-02-17T14:08:12.210Z,26.03
2023-02-17T14:10:40.580Z,25.25
2023-02-17T14:13:11.390Z,24.62
2023-02-17T14:15:49.098Z,24.11
2023-02-17T14:18:27.379Z,23.80
2023-02-17T14:21:09.456Z,23.80
2023-02-17T14:23:42.921Z,22.51
2023-02-17T14:26:43.065Z,23.71
2023-02-17T14:29:13.506Z,22.11
2023-02-17T14:31:49.565Z,21.14
2023-02-17T14:34:30.591Z,21.05
2023-02-17T14:37:09.753Z,20.60
2023-02-17T14:39:37.528Z,19.55
2023-02-17T14:42:05.389Z,18.94
2023-02-17T14:44:32.717Z,18.61
2023-02-17T14:47:00.591Z,18.07
2023-02-17T14:49:27.947Z,18.33
2023-02-17T14:51:56.954Z,18.58
2023-02-17T14:54:26.607Z,17.86
2023-02-17T14:57:07.591Z,18.68
2023-02-17T14:59:35.226Z,19.40
2023-02-17T15:02:02.730Z,19.73
2023-02-17T15:04:30.162Z,21.45
2023-02-17T15:06:57.926Z,22.99
2023-02-17T15:09:30.302Z,23.43
2023-02-17T15:11:58.724Z,23.92
2023-02-17T15:14:26.121Z,24.85
2023-02-17T15:16:53.466Z,25.02
2023-02-17T15:19:21.228Z,25.58
2023-02-17T15:21:51.789Z,25.72
2023-02-17T15:24:30.521Z,26.33
2023-02-17T15:27:00.241Z,28.07
2023-02-17T15:29:27.942Z,28.21
2023-02-17T15:31:56.825Z,28.61
2023-02-17T15:34:32.735Z,29.59
2023-02-17T15:37:00.862Z,29.27
2023-02-17T15:39:29.028Z,30.39
2023-02-17T15:42:00.938Z,30.99
2023-02-17T15:44:36.690Z,30.86
2023-02-17T15:47:04.060Z,31.94
2023-02-17T15:49:31.745Z,33.29
2023-02-17T15:51:59.130Z,34.59
2023-02-17T15:54:26.498Z,34.98
2023-02-17T15:56:54.325Z,35.39
2023-02-17T15:59:25.062Z,36.17
2023-02-17T16:01:56.294Z,36.56
2023-02-17T16:04:24.052Z,37.40
2023-02-17T16:06:51.629Z,38.10
2023-02-17T16:09:20.829Z,38.28
2023-02-17T16:11:54.627Z,38.74
2023-02-17T16:14:31.254Z,39.96
2023-02-17T16:16:58.991Z,39.79
2023-02-17T16:19:26.380Z,40.32
2023-02-17T16:21:53.778Z,40.68
2023-02-17T16:24:21.711Z,41.38
2023-02-17T16:26:49.330Z,42.22
2023-02-17T16:29:19.582Z,42.84
2023-02-17T16:31:48.620Z,42.13
2023-02-17T16:34:17.554Z,42.52
2023-02-17T16:36:45.144Z,42.44
2023-02-17T16:39:15.264Z,42.86
2023-02-17T16:41:42.978Z,43.54
2023-02-17T16:44:15.234Z,43.31
2023-02-17T16:46:54.813Z,44.40
2023-02-17T16:49:28.469Z,44.30
2023-02-17T16:51:56.155Z,45.30
2023-02-17T16:54:23.492Z,45.21
2023-02-17T16:56:52.507Z,46.42
2023-02-17T16:59:21.957Z,47.01
2023-02-17T17:01:51.239Z,47.27
2023-02-17T17:04:19.227Z,47.07
2023-02-17T17:06:50.274Z,47.66
2023-02-17T17:09:20.507Z,47.66
2023-02-17T17:11:48.461Z,47.78
2023-02-17T17:14:15.861Z,47.96
2023-02-17T17:16:58.626Z,47.80
2023-02-17T17:19:26.419Z,49.08
2023-02-17T17:21:54.029Z,48.47
2023-02-17T17:24:22.060Z,49.11
2023-02-17T17:26:51.675Z,50.16
2023-02-17T17:29:19.755Z,50.88
2023-02-17T17:31:49.012Z,50.82
2023-02-17T17:34:16.643Z,50.28
2023-02-17T17:36:45.945Z,49.79
2023-02-17T17:39:16.394Z,50.40
2023-02-17T17:41:44.846Z,50.99
2023-02-17T17:44:12.217Z,51.09
2023-02-17T17:46:40.341Z,51.14
2023-02-17T17:49:10.538Z,51.18
2023-02-17T17:51:38.560Z,51.76
2023-02-17T17:54:06.943Z,52.98
2023-02-17T17:56:38.944Z,53.08
2023-02-17T17:59:07.004Z,53.08
2023-02-17T18:01:35.075Z,53.78
2023-02-17T18:04:02.863Z,54.23
2023-02-17T18:06:36.465Z,55.12
2023-02-17T18:09:06.913Z,54.95
2023-02-17T18:11:37.190Z,56.59
2023-02-17T18:14:08.798Z,59.19
2023-02-17T18:16:38.629Z,58.67
2023-02-17T18:19:07.801Z,59.59
2023-02-17T18:21:35.952Z,59.29
2023-02-17T18:24:03.973Z,58.31
2023-02-17T18:26:32.205Z,57.83
2023-02-17T18:29:01.254Z,57.28
2023-02-17T18:31:29.685Z,56.71
2023-02-17T18:33:57.599Z,56.62
2023-02-17T18:36:27.036Z,56.88
2023-02-17T18:38:54.716Z,56.96
2023-02-17T18:41:27.902Z,57.79
2023-02-17T18:43:56.886Z,58.32
2023-02-17T18:46:26.835Z,58.06
2023-02-17T18:48:57.551Z,57.81
2023-02-17T18:51:27.812Z,58.57
2023-02-17T18:53:57.688Z,58.13
2023-02-17T18:56:29.645Z,58.69
2023-02-17T18:58:57.399Z,57.65
2023-02-17T19:01:30.418Z,58.60
2023-02-17T19:03:58.479Z,59.61
2023-02-17T19:06:28.970Z,58.56
2023-02-17T19:08:56.546Z,58.63
2023-02-17T19:11:24.726Z,59.68
2023-02-17T19:13:53.513Z,59.16
2023-02-17T19:16:24.868Z,58.90
2023-02-17T19:18:52.996Z,59.18
2023-02-17T19:21:23.119Z,59.09
2023-02-17T19:23:51.834Z,59.23
2023-02-17T19:26:19.966Z,59.33
2023-02-17T19:28:50.412Z,59.72
2023-02-17T19:31:20.351Z,59.71
2023-02-17T19:33:48.199Z,59.94
2023-02-17T19:36:21.371Z,61.05
2023-02-17T19:38:51.125Z,61.35
2023-02-17T19:41:19.697Z,60.10
2023-02-17T19:43:48.697Z,60.83
2023-02-17T19:46:19.998Z,61.28
2023-02-17T19:48:47.440Z,60.88
2023-02-17T19:51:14.891Z,61.73
2023-02-17T19:53:43.648Z,62.63
2023-02-17T19:56:14.020Z,62.71
2023-02-17T19:58:43.478Z,63.07
2023-02-17T20:01:20.125Z,62.30
2023-02-17T20:03:48.125Z,61.38
2023-02-17T20:06:21.676Z,61.10
2023-02-17T20:08:54.464Z,61.23
2023-02-17T20:11:21.934Z,61.67
2023-02-17T20:13:49.903Z,62.77
2023-02-17T20:16:18.467Z,62.96
2023-02-17T20:18:48.822Z,63.59
2023-02-17T20:21:19.975Z,63.08
2023-02-17T20:23:48.191Z,62.60
2023-02-17T20:26:20.467Z,62.84
2023-02-17T20:28:48.958Z,62.96
2023-02-17T20:31:16.828Z,63.66
2023-02-17T20:33:44.963Z,63.56
2023-02-17T20:36:12.646Z,63.71
2023-02-17T20:38:40.981Z,63.15
2023-02-17T20:41:09.771Z,63.80
2023-02-17T20:43:38.677Z,62.96
2023-02-17T20:46:07.501Z,64.10
2023-02-17T20:48:35.327Z,64.77
2023-02-17T20:51:04.378Z,64.92
2023-02-17T20:53:31.916Z,66.14
2023-02-17T20:55:59.321Z,65.44
2023-02-17T20:58:26.671Z,66.14
2023-02-17T21:00:54.457Z,65.94
2023-02-17T21:03:21.888Z,66.11
2023-02-17T21:05:49.374Z,66.92
2023-02-17T21:08:17.195Z,66.72
2023-02-17T21:10:44.530Z,66.45
2023-02-17T21:13:12.030Z,66.61
2023-02-17T21:15:39.962Z,66.30
2023-02-17T21:18:09.009Z,66.39
2023-02-17T21:20:36.470Z,66.73
2023-02-17T21:23:04.395Z,66.56
2023-02-17T21:25:31.777Z,66.31
2023-02-17T21:27:59.058Z,65.98
2023-02-17T21:30:26.818Z,65.79
2023-02-17T21:32:55.545Z,65.97
2023-02-17T21:35:22.917Z,65.64
2023-02-17T21:37:50.712Z,65.07
2023-02-17T21:40:18.167Z,65.89
2023-02-17T21:43:04.128Z,66.35
2023-02-17T21:45:37.896Z,66.65
2023-02-17T21:48:06.930Z,66.59
2023-02-17T21:50:34.670Z,65.90
2023-02-17T21:53:02.188Z,66.18
2023-02-17T21:55:29.580Z,66.89
2023-02-17T21:57:57.374Z,67.62
2023-02-17T22:00:24.710Z,66.83
2023-02-17T22:02:52.304Z,66.76
2023-02-17T22:05:19.984Z,67.08
2023-02-17T22:07:51.366Z,67.46
2023-02-17T22:10:19.072Z,67.54
2023-02-17T22:12:46.363Z,68.90
2023-02-17T22:15:16.235Z,68.93
2023-02-17T22:17:44.133Z,68.59
2023-02-17T22:20:11.983Z,68.06
2023-02-17T22:22:39.218Z,68.19
2023-02-17T22:25:08.599Z,68.70
2023-02-17T22:27:35.873Z,69.11
2023-02-17T22:30:04.048Z,69.62
2023-02-17T22:32:31.917Z,69.74
2023-02-17T22:34:59.204Z,70.00
2023-02-17T22:37:26.475Z,70.22
2023-02-17T22:39:55.753Z,69.94
2023-02-17T22:42:24.185Z,69.93
2023-02-17T22:44:51.690Z,69.14
2023-02-17T22:47:19.315Z,68.37
2023-02-17T22:49:46.716Z,69.06
2023-02-17T22:52:14.304Z,69.29
2023-02-17T22:54:41.961Z,68.92
2023-02-17T22:57:10.587Z,69.00
2023-02-17T22:59:37.840Z,68.79
2023-02-17T23:02:05.587Z,68.18
2023-02-17T23:04:32.908Z,68.49
2023-02-17T23:07:00.258Z,68.38
2023-02-17T23:09:27.962Z,67.93
2023-02-17T23:11:55.600Z,68.60
2023-02-17T23:14:25.815Z,68.83
2023-02-17T23:16:55.414Z,68.31
2023-02-17T23:19:23.677Z,68.64
2023-02-17T23:21:57.036Z,69.21
2023-02-17T23:24:25.936Z,69.13
2023-02-17T23:26:54.796Z,68.51
2023-02-17T23:29:22.556Z,69.27
2023-02-17T23:31:50.233Z,69.38
2023-02-17T23:34:17.615Z,68.64
2023-02-17T23:36:46.462Z,68.74
2023-02-17T23:39:15.482Z,69.18
2023-02-17T23:41:43.680Z,69.24
2023-02-17T23:44:13.055Z,69.16
2023-02-17T23:46:42.011Z,69.00
2023-02-17T23:49:13.416Z,68.44
2023-02-17T23:51:41.767Z,68.08
2023-02-17T23:54:09.158Z,68.15
2023-02-17T23:56:37.054Z,68.55
2023-02-17T23:59:05.304Z,68.62
